createdAt,value
2023-04-29T00:00:59.940Z,645.00
2023-04-29T00:01:59.976Z,647.00
2023-04-29T00:03:00.118Z,646.00
2023-04-29T00:04:00.156Z,646.00
2023-04-29T00:05:00.273Z,648.00
2023-04-29T00:06:00.136Z,643.00
2023-04-29T00:07:00.046Z,641.00
2023-04-29T00:07:59.996Z,642.00
2023-04-29T00:09:00.036Z,640.00
2023-04-29T00:10:00.135Z,640.00
2023-04-29T00:11:00.123Z,641.00
2023-04-29T00:12:00.181Z,641.00
2023-04-29T00:13:00.140Z,642.00
2023-04-29T00:14:00.151Z,640.00
2023-04-29T00:15:00.160Z,640.00
2023-04-29T00:16:00.173Z,640.00
2023-04-29T00:17:00.257Z,637.00
2023-04-29T00:18:00.244Z,638.00
2023-04-29T00:19:00.203Z,638.00
2023-04-29T00:20:00.222Z,637.00
2023-04-29T00:21:00.243Z,635.00
2023-04-29T00:22:00.220Z,634.00
2023-04-29T00:23:00.261Z,633.00
2023-04-29T00:24:00.216Z,632.00
2023-04-29T00:25:00.229Z,636.00
2023-04-29T00:26:00.247Z,636.00
2023-04-29T00:27:00.260Z,634.00
2023-04-29T00:28:00.268Z,632.00
2023-04-29T00:29:00.310Z,633.00
2023-04-29T00:30:00.314Z,630.00
2023-04-29T00:31:00.397Z,628.00
2023-04-29T00:32:00.381Z,629.00
2023-04-29T00:33:00.384Z,626.00
2023-04-29T00:34:00.371Z,624.00
2023-04-29T00:35:00.338Z,623.00
2023-04-29T00:36:00.357Z,622.00
2023-04-29T00:37:00.361Z,624.00
2023-04-29T00:38:00.357Z,617.00
2023-04-29T00:39:00.370Z,617.00
2023-04-29T00:40:00.386Z,620.00
2023-04-29T00:41:00.401Z,618.00
2023-04-29T00:42:00.401Z,615.00
2023-04-29T00:43:00.407Z,619.00
2023-04-29T00:44:00.414Z,616.00
2023-04-29T00:45:00.443Z,618.00
2023-04-29T00:46:00.479Z,616.00
2023-04-29T00:47:00.446Z,617.00
2023-04-29T00:48:00.495Z,616.00
2023-04-29T00:49:00.717Z,616.00
2023-04-29T00:50:00.460Z,614.00
2023-04-29T00:51:00.459Z,618.00
2023-04-29T00:52:00.516Z,612.00
2023-04-29T00:53:00.510Z,614.00
2023-04-29T00:54:00.523Z,614.00
2023-04-29T00:55:00.553Z,615.00
2023-04-29T00:56:00.550Z,610.00
2023-04-29T00:57:00.566Z,611.00
2023-04-29T00:58:00.693Z,610.00
2023-04-29T00:59:00.614Z,610.00
2023-04-29T01:00:00.667Z,608.00
2023-04-29T01:01:00.659Z,608.00
2023-04-29T01:02:00.836Z,606.00
2023-04-29T01:03:00.740Z,609.00
2023-04-29T01:04:00.852Z,605.00
2023-04-29T01:05:00.648Z,606.00
2023-04-29T01:06:00.636Z,603.00
2023-04-29T01:07:00.639Z,603.00
2023-04-29T01:08:00.658Z,603.00
2023-04-29T01:09:00.668Z,602.00
2023-04-29T01:10:00.688Z,601.00
2023-04-29T01:11:00.691Z,603.00
2023-04-29T01:12:00.678Z,603.00
2023-04-29T01:13:00.701Z,604.00
2023-04-29T01:14:01.624Z,595.00
2023-04-29T01:15:00.997Z,595.00
2023-04-29T01:16:00.734Z,600.00
2023-04-29T01:17:00.708Z,600.00
2023-04-29T01:18:00.907Z,598.00
2023-04-29T01:19:00.731Z,599.00
2023-04-29T01:20:00.722Z,594.00
2023-04-29T01:21:00.749Z,598.00
2023-04-29T01:22:00.749Z,596.00
2023-04-29T01:23:00.772Z,597.00
2023-04-29T01:24:00.777Z,599.00
2023-04-29T01:25:00.800Z,596.00
2023-04-29T01:26:00.823Z,595.00
2023-04-29T01:27:00.832Z,598.00
2023-04-29T01:28:00.867Z,594.00
2023-04-29T01:29:00.892Z,595.00
2023-04-29T01:30:01.135Z,597.00
2023-04-29T01:31:01.044Z,597.00
2023-04-29T01:32:00.908Z,593.00
2023-04-29T01:33:00.974Z,594.00
2023-04-29T01:34:00.942Z,594.00
2023-04-29T01:35:00.959Z,592.00
2023-04-29T01:36:00.973Z,591.00
2023-04-29T01:37:01.002Z,598.00
2023-04-29T01:38:00.995Z,594.00
2023-04-29T01:39:01.034Z,594.00
2023-04-29T01:40:01.056Z,593.00
2023-04-29T01:41:01.040Z,592.00
2023-04-29T01:42:01.055Z,590.00
2023-04-29T01:43:01.093Z,590.00
2023-04-29T01:44:01.098Z,590.00
2023-04-29T01:45:01.224Z,588.00
2023-04-29T01:46:01.115Z,592.00
2023-04-29T01:47:01.282Z,584.00
2023-04-29T01:48:01.189Z,585.00
2023-04-29T01:49:01.128Z,589.00
2023-04-29T01:50:01.155Z,589.00
2023-04-29T01:51:01.128Z,585.00
2023-04-29T01:52:01.137Z,588.00
2023-04-29T01:53:01.142Z,590.00
2023-04-29T01:54:01.143Z,587.00
2023-04-29T01:55:01.177Z,585.00
2023-04-29T01:56:01.166Z,587.00
2023-04-29T01:57:01.199Z,584.00
2023-04-29T01:58:02.107Z,587.00
2023-04-29T01:59:01.233Z,585.00
2023-04-29T02:00:01.273Z,583.00
2023-04-29T02:01:01.350Z,583.00
2023-04-29T02:02:01.316Z,585.00
2023-04-29T02:03:01.409Z,580.00
2023-04-29T02:04:01.412Z,582.00
2023-04-29T02:05:01.406Z,581.00
2023-04-29T02:06:01.387Z,581.00
2023-04-29T02:07:01.351Z,583.00
2023-04-29T02:08:01.361Z,579.00
2023-04-29T02:09:01.365Z,576.00
2023-04-29T02:10:01.386Z,577.00
2023-04-29T02:11:01.379Z,576.00
2023-04-29T02:12:01.382Z,577.00
2023-04-29T02:13:01.379Z,580.00
2023-04-29T02:14:01.376Z,578.00
2023-04-29T02:15:02.153Z,577.00
2023-04-29T02:16:01.416Z,577.00
2023-04-29T02:17:01.425Z,573.00
2023-04-29T02:18:01.559Z,573.00
2023-04-29T02:19:01.458Z,576.00
2023-04-29T02:20:01.461Z,573.00
2023-04-29T02:21:01.579Z,573.00
2023-04-29T02:22:01.526Z,574.00
2023-04-29T02:23:01.469Z,573.00
2023-04-29T02:24:01.502Z,572.00
2023-04-29T02:25:01.481Z,571.00
2023-04-29T02:26:01.491Z,572.00
2023-04-29T02:27:01.475Z,571.00
2023-04-29T02:28:01.485Z,570.00
2023-04-29T02:29:01.484Z,570.00
2023-04-29T02:30:01.483Z,570.00
2023-04-29T02:31:02.328Z,572.00
2023-04-29T02:32:01.551Z,571.00
2023-04-29T02:33:01.535Z,567.00
2023-04-29T02:34:01.499Z,568.00
2023-04-29T02:35:01.527Z,568.00
2023-04-29T02:36:01.513Z,564.00
2023-04-29T02:37:01.532Z,569.00
2023-04-29T02:38:01.520Z,566.00
2023-04-29T02:39:01.539Z,563.00
2023-04-29T02:40:01.562Z,564.00
2023-04-29T02:41:01.554Z,564.00
2023-04-29T02:42:01.575Z,566.00
2023-04-29T02:43:01.585Z,564.00
2023-04-29T02:44:01.565Z,566.00
2023-04-29T02:45:01.578Z,566.00
2023-04-29T02:46:01.588Z,565.00
2023-04-29T02:47:01.574Z,567.00
2023-04-29T02:48:01.605Z,567.00
2023-04-29T02:49:01.593Z,564.00
2023-04-29T02:50:01.623Z,560.00
2023-04-29T02:51:01.634Z,564.00
2023-04-29T02:52:01.644Z,564.00
2023-04-29T02:53:01.671Z,560.00
2023-04-29T02:54:01.694Z,560.00
2023-04-29T02:55:01.690Z,558.00
2023-04-29T02:56:01.711Z,558.00
2023-04-29T02:57:01.702Z,558.00
2023-04-29T02:58:01.730Z,559.00
2023-04-29T02:59:01.730Z,558.00
2023-04-29T03:00:01.716Z,561.00
2023-04-29T03:01:01.740Z,560.00
2023-04-29T03:02:01.739Z,559.00
2023-04-29T03:03:02.039Z,560.00
2023-04-29T03:04:01.937Z,558.00
2023-04-29T03:05:01.778Z,558.00
2023-04-29T03:06:01.785Z,556.00
2023-04-29T03:07:01.786Z,554.00
2023-04-29T03:08:01.786Z,553.00
2023-04-29T03:09:01.926Z,556.00
2023-04-29T03:10:01.793Z,556.00
2023-04-29T03:11:01.795Z,555.00
2023-04-29T03:12:01.812Z,553.00
2023-04-29T03:13:01.800Z,552.00
2023-04-29T03:14:01.787Z,555.00
2023-04-29T03:15:01.842Z,552.00
2023-04-29T03:16:01.783Z,553.00
2023-04-29T03:17:01.846Z,553.00
2023-04-29T03:18:01.844Z,552.00
2023-04-29T03:19:01.755Z,554.00
2023-04-29T03:20:01.738Z,548.00
2023-04-29T03:21:01.729Z,553.00
2023-04-29T03:22:01.725Z,550.00
2023-04-29T03:23:01.740Z,552.00
2023-04-29T03:24:01.700Z,550.00
2023-04-29T03:25:01.688Z,553.00
2023-04-29T03:26:01.777Z,550.00
2023-04-29T03:27:01.690Z,549.00
2023-04-29T03:28:03.758Z,549.00
2023-04-29T03:29:01.691Z,547.00
2023-04-29T03:30:01.696Z,550.00
2023-04-29T03:31:01.726Z,546.00
2023-04-29T03:32:01.704Z,546.00
2023-04-29T03:33:01.820Z,546.00
2023-04-29T03:34:01.698Z,547.00
2023-04-29T03:35:01.697Z,545.00
2023-04-29T03:36:01.706Z,549.00
2023-04-29T03:37:01.734Z,545.00
2023-04-29T03:38:01.725Z,545.00
2023-04-29T03:39:01.691Z,547.00
2023-04-29T03:40:01.672Z,544.00
2023-04-29T03:41:01.673Z,546.00
2023-04-29T03:42:01.671Z,545.00
2023-04-29T03:43:01.687Z,549.00
2023-04-29T03:44:01.710Z,544.00
2023-04-29T03:45:01.720Z,545.00
2023-04-29T03:46:01.753Z,546.00
2023-04-29T03:47:01.711Z,544.00
2023-04-29T03:48:01.724Z,546.00
2023-04-29T03:49:01.697Z,541.00
2023-04-29T03:50:01.727Z,541.00
2023-04-29T03:51:01.709Z,545.00
2023-04-29T03:52:01.703Z,543.00
2023-04-29T03:53:01.709Z,541.00
2023-04-29T03:54:01.693Z,538.00
2023-04-29T03:55:01.694Z,537.00
2023-04-29T03:56:01.697Z,540.00
2023-04-29T03:57:01.698Z,538.00
2023-04-29T03:58:01.721Z,539.00
2023-04-29T03:59:01.700Z,539.00
2023-04-29T04:00:01.710Z,542.00
2023-04-29T04:01:01.709Z,540.00
2023-04-29T04:02:01.778Z,540.00
2023-04-29T04:03:04.997Z,540.00
2023-04-29T04:04:01.871Z,547.00
2023-04-29T04:05:01.803Z,541.00
2023-04-29T04:06:01.665Z,540.00
2023-04-29T04:07:01.684Z,543.00
2023-04-29T04:08:01.659Z,538.00
2023-04-29T04:09:01.651Z,537.00
2023-04-29T04:10:01.619Z,542.00
2023-04-29T04:11:01.595Z,538.00
2023-04-29T04:12:01.584Z,539.00
2023-04-29T04:13:01.568Z,536.00
2023-04-29T04:14:01.557Z,538.00
2023-04-29T04:15:01.551Z,533.00
2023-04-29T04:16:01.561Z,532.00
2023-04-29T04:17:01.530Z,536.00
2023-04-29T04:18:01.651Z,536.00
2023-04-29T04:19:01.488Z,532.00
2023-04-29T04:20:01.473Z,538.00
2023-04-29T04:21:01.454Z,534.00
2023-04-29T04:22:01.438Z,535.00
2023-04-29T04:23:01.414Z,529.00
2023-04-29T04:24:01.391Z,530.00
2023-04-29T04:25:01.443Z,533.00
2023-04-29T04:26:01.358Z,532.00
2023-04-29T04:27:01.342Z,533.00
2023-04-29T04:28:01.354Z,533.00
2023-04-29T04:29:01.316Z,534.00
2023-04-29T04:30:01.298Z,531.00
2023-04-29T04:31:01.420Z,533.00
2023-04-29T04:32:01.306Z,530.00
2023-04-29T04:33:01.270Z,532.00
2023-04-29T04:34:01.244Z,529.00
2023-04-29T04:35:01.227Z,529.00
2023-04-29T04:36:01.219Z,531.00
2023-04-29T04:37:01.199Z,528.00
2023-04-29T04:38:01.176Z,530.00
2023-04-29T04:39:01.152Z,529.00
2023-04-29T04:40:01.145Z,530.00
2023-04-29T04:41:01.120Z,528.00
2023-04-29T04:42:01.109Z,527.00
2023-04-29T04:43:01.085Z,525.00
2023-04-29T04:44:01.123Z,528.00
2023-04-29T04:45:01.064Z,524.00
2023-04-29T04:46:01.093Z,526.00
2023-04-29T04:47:01.043Z,525.00
2023-04-29T04:48:01.028Z,524.00
2023-04-29T04:49:00.988Z,526.00
2023-04-29T04:50:00.955Z,524.00
2023-04-29T04:51:01.119Z,525.00
2023-04-29T04:52:00.942Z,527.00
2023-04-29T04:53:00.898Z,527.00
2023-04-29T04:54:00.876Z,524.00
2023-04-29T04:55:00.855Z,526.00
2023-04-29T04:56:00.850Z,525.00
2023-04-29T04:57:00.818Z,525.00
2023-04-29T04:58:00.799Z,523.00
2023-04-29T04:59:00.996Z,525.00
2023-04-29T05:00:01.046Z,522.00
2023-04-29T05:01:00.811Z,520.00
2023-04-29T05:02:00.779Z,520.00
2023-04-29T05:03:00.912Z,521.00
2023-04-29T05:04:00.761Z,522.00
2023-04-29T05:05:00.662Z,519.00
2023-04-29T05:06:00.683Z,518.00
2023-04-29T05:07:00.624Z,516.00
2023-04-29T05:08:01.206Z,524.00
2023-04-29T05:09:00.569Z,519.00
2023-04-29T05:10:00.543Z,519.00
2023-04-29T05:11:00.547Z,520.00
2023-04-29T05:12:00.502Z,522.00
2023-04-29T05:13:00.482Z,517.00
2023-04-29T05:14:00.468Z,518.00
2023-04-29T05:15:00.443Z,517.00
2023-04-29T05:16:00.425Z,520.00
2023-04-29T05:17:00.475Z,520.00
2023-04-29T05:18:00.515Z,514.00
2023-04-29T05:19:00.370Z,517.00
2023-04-29T05:20:00.364Z,517.00
2023-04-29T05:21:00.326Z,516.00
2023-04-29T05:22:00.308Z,515.00
2023-04-29T05:23:00.283Z,513.00
2023-04-29T05:24:00.275Z,514.00
2023-04-29T05:25:00.264Z,517.00
2023-04-29T05:26:00.252Z,518.00
2023-04-29T05:27:00.200Z,512.00
2023-04-29T05:28:00.185Z,513.00
2023-04-29T05:29:01.860Z,513.00
2023-04-29T05:30:00.151Z,515.00
2023-04-29T05:31:00.166Z,515.00
2023-04-29T05:32:00.143Z,513.00
2023-04-29T05:33:00.151Z,513.00
2023-04-29T05:34:00.049Z,513.00
2023-04-29T05:35:00.033Z,515.00
2023-04-29T05:36:00.028Z,513.00
2023-04-29T05:36:59.986Z,513.00
2023-04-29T05:37:59.955Z,511.00
2023-04-29T05:38:59.939Z,510.00
2023-04-29T05:39:59.918Z,514.00
2023-04-29T05:40:59.906Z,508.00
2023-04-29T05:41:59.897Z,511.00
2023-04-29T05:42:59.862Z,511.00
2023-04-29T05:43:59.830Z,509.00
2023-04-29T05:44:59.800Z,513.00
2023-04-29T05:45:59.811Z,511.00
2023-04-29T05:46:59.763Z,507.00
2023-04-29T05:47:59.775Z,508.00
2023-04-29T05:48:59.714Z,511.00
2023-04-29T05:49:59.685Z,513.00
2023-04-29T05:50:59.651Z,510.00
2023-04-29T05:51:59.628Z,510.00
2023-04-29T05:52:59.606Z,506.00
2023-04-29T05:53:59.590Z,510.00
2023-04-29T05:54:59.568Z,507.00
2023-04-29T05:55:59.549Z,508.00
2023-04-29T05:56:59.528Z,508.00
2023-04-29T05:57:59.508Z,504.00
2023-04-29T05:58:59.482Z,504.00
2023-04-29T05:59:59.469Z,503.00
2023-04-29T06:01:00.094Z,505.00
2023-04-29T06:01:59.426Z,501.00
2023-04-29T06:02:59.573Z,505.00
2023-04-29T06:03:59.650Z,501.00
2023-04-29T06:04:59.657Z,500.00
2023-04-29T06:05:59.704Z,505.00
2023-04-29T06:06:59.342Z,503.00
2023-04-29T06:07:59.322Z,504.00
2023-04-29T06:08:59.304Z,504.00
2023-04-29T06:09:59.304Z,501.00
2023-04-29T06:11:00.214Z,503.00
2023-04-29T06:11:59.287Z,501.00
2023-04-29T06:12:59.294Z,503.00
2023-04-29T06:13:59.302Z,502.00
2023-04-29T06:14:59.338Z,503.00
2023-04-29T06:15:59.355Z,501.00
2023-04-29T06:16:59.361Z,501.00
2023-04-29T06:17:59.486Z,502.00
2023-04-29T06:18:59.384Z,503.00
2023-04-29T06:19:59.399Z,500.00
2023-04-29T06:20:59.432Z,506.00
2023-04-29T06:21:59.432Z,505.00
2023-04-29T06:22:59.452Z,500.00
2023-04-29T06:23:59.465Z,502.00
2023-04-29T06:24:59.471Z,505.00
2023-04-29T06:25:59.486Z,505.00
2023-04-29T06:26:59.480Z,507.00
2023-04-29T06:27:59.492Z,502.00
2023-04-29T06:28:59.509Z,504.00
2023-04-29T06:29:59.532Z,502.00
2023-04-29T06:30:59.549Z,502.00
2023-04-29T06:31:59.592Z,500.00
2023-04-29T06:32:59.628Z,501.00
2023-04-29T06:34:00.574Z,501.00
2023-04-29T06:34:59.542Z,501.00
2023-04-29T06:35:59.529Z,502.00
2023-04-29T06:36:59.501Z,498.00
2023-04-29T06:37:59.481Z,498.00
2023-04-29T06:38:59.453Z,502.00
2023-04-29T06:39:59.444Z,502.00
2023-04-29T06:40:59.416Z,501.00
2023-04-29T06:41:59.480Z,502.00
2023-04-29T06:42:59.466Z,504.00
2023-04-29T06:43:59.506Z,504.00
2023-04-29T06:44:59.528Z,502.00
2023-04-29T06:45:59.575Z,502.00
2023-04-29T06:46:59.651Z,504.00
2023-04-29T06:47:59.713Z,503.00
2023-04-29T06:48:59.751Z,502.00
2023-04-29T06:49:59.735Z,500.00
2023-04-29T06:50:59.750Z,502.00
2023-04-29T06:51:59.795Z,501.00
2023-04-29T06:52:59.795Z,502.00
2023-04-29T06:53:59.810Z,502.00
2023-04-29T06:54:59.846Z,503.00
2023-04-29T06:55:59.877Z,505.00
2023-04-29T06:56:59.887Z,502.00
2023-04-29T06:57:59.910Z,501.00
2023-04-29T06:58:59.930Z,505.00
2023-04-29T06:59:59.935Z,503.00
2023-04-29T07:00:59.974Z,507.00
2023-04-29T07:01:59.960Z,500.00
2023-04-29T07:02:59.996Z,505.00
2023-04-29T07:04:00.266Z,501.00
2023-04-29T07:05:00.020Z,503.00
2023-04-29T07:05:59.990Z,503.00
2023-04-29T07:06:59.986Z,502.00
2023-04-29T07:07:59.993Z,508.00
2023-04-29T07:08:59.993Z,510.00
2023-04-29T07:09:59.987Z,503.00
2023-04-29T07:10:59.973Z,504.00
2023-04-29T07:11:59.974Z,508.00
2023-04-29T07:12:59.968Z,505.00
2023-04-29T07:13:59.951Z,507.00
2023-04-29T07:14:59.944Z,508.00
2023-04-29T07:15:59.947Z,507.00
2023-04-29T07:16:59.958Z,501.00
2023-04-29T07:17:59.948Z,505.00
2023-04-29T07:18:59.903Z,500.00
2023-04-29T07:19:59.907Z,507.00
2023-04-29T07:20:59.865Z,506.00
2023-04-29T07:21:59.851Z,504.00
2023-04-29T07:22:59.860Z,500.00
2023-04-29T07:23:59.806Z,507.00
2023-04-29T07:24:59.769Z,505.00
2023-04-29T07:25:59.787Z,504.00
2023-04-29T07:26:59.769Z,502.00
2023-04-29T07:27:59.748Z,500.00
2023-04-29T07:28:59.728Z,506.00
2023-04-29T07:29:59.693Z,506.00
2023-04-29T07:30:59.685Z,508.00
2023-04-29T07:31:59.630Z,504.00
2023-04-29T07:32:59.654Z,508.00
2023-04-29T07:33:59.672Z,508.00
2023-04-29T07:34:59.675Z,508.00
2023-04-29T07:35:59.740Z,503.00
2023-04-29T07:36:59.670Z,506.00
2023-04-29T07:37:59.685Z,503.00
2023-04-29T07:38:59.702Z,503.00
2023-04-29T07:39:59.707Z,505.00
2023-04-29T07:40:59.719Z,506.00
2023-04-29T07:41:59.744Z,500.00
2023-04-29T07:42:59.761Z,508.00
2023-04-29T07:43:59.749Z,504.00
2023-04-29T07:44:59.755Z,505.00
2023-04-29T07:46:00.111Z,505.00
2023-04-29T07:46:59.788Z,508.00
2023-04-29T07:47:59.868Z,500.00
2023-04-29T07:48:59.837Z,504.00
2023-04-29T07:49:59.855Z,500.00
2023-04-29T07:50:59.872Z,514.00
2023-04-29T07:51:59.875Z,512.00
2023-04-29T07:52:59.851Z,511.00
2023-04-29T07:53:59.852Z,513.00
2023-04-29T07:54:59.830Z,505.00
2023-04-29T07:56:01.248Z,506.00
2023-04-29T07:56:59.886Z,502.00
2023-04-29T07:58:00.637Z,503.00
2023-04-29T07:58:59.922Z,509.00
2023-04-29T07:59:59.961Z,508.00
2023-04-29T08:00:59.963Z,506.00
2023-04-29T08:01:59.987Z,500.00
2023-04-29T08:03:00.099Z,500.00
2023-04-29T08:04:00.331Z,511.00
2023-04-29T08:05:00.517Z,506.00
2023-04-29T08:06:00.175Z,505.00
2023-04-29T08:07:00.117Z,506.00
2023-04-29T08:08:00.125Z,504.00
2023-04-29T08:09:01.186Z,506.00
2023-04-29T08:10:00.187Z,506.00
2023-04-29T08:11:00.155Z,507.00
2023-04-29T08:12:00.185Z,509.00
2023-04-29T08:13:00.182Z,504.00
2023-04-29T08:14:00.351Z,510.00
2023-04-29T08:15:00.201Z,505.00
2023-04-29T08:16:00.280Z,504.00
2023-04-29T08:17:00.218Z,503.00
2023-04-29T08:18:00.278Z,508.00
2023-04-29T08:19:00.239Z,510.00
2023-04-29T08:20:00.256Z,506.00
2023-04-29T08:21:00.255Z,505.00
2023-04-29T08:22:00.259Z,503.00
2023-04-29T08:23:00.270Z,509.00
2023-04-29T08:24:00.260Z,508.00
2023-04-29T08:25:00.428Z,509.00
2023-04-29T08:26:00.297Z,510.00
2023-04-29T08:27:00.504Z,508.00
2023-04-29T08:28:00.289Z,506.00
2023-04-29T08:29:00.305Z,506.00
2023-04-29T08:30:00.346Z,507.00
2023-04-29T08:31:00.309Z,506.00
2023-04-29T08:32:00.580Z,509.00
2023-04-29T08:33:00.319Z,504.00
2023-04-29T08:34:00.310Z,509.00
2023-04-29T08:35:00.321Z,506.00
2023-04-29T08:36:00.322Z,504.00
2023-04-29T08:37:00.321Z,504.00
2023-04-29T08:38:00.313Z,507.00
2023-04-29T08:39:00.303Z,503.00
2023-04-29T08:40:00.297Z,507.00
2023-04-29T08:41:00.391Z,501.00
2023-04-29T08:42:00.301Z,503.00
2023-04-29T08:43:00.559Z,503.00
2023-04-29T08:44:00.278Z,502.00
2023-04-29T08:45:00.265Z,501.00
2023-04-29T08:46:00.986Z,503.00
2023-04-29T08:47:00.242Z,502.00
2023-04-29T08:48:00.298Z,504.00
2023-04-29T08:49:00.225Z,500.00
2023-04-29T08:50:00.589Z,501.00
2023-04-29T08:51:00.299Z,511.00
2023-04-29T08:52:00.500Z,505.00
2023-04-29T08:53:00.185Z,505.00
2023-04-29T08:54:00.180Z,509.00
2023-04-29T08:55:00.175Z,504.00
2023-04-29T08:56:00.153Z,509.00
2023-04-29T08:57:00.419Z,508.00
2023-04-29T08:58:00.260Z,504.00
2023-04-29T08:59:00.394Z,506.00
2023-04-29T09:00:00.364Z,506.00
2023-04-29T09:01:00.151Z,504.00
2023-04-29T09:02:00.101Z,504.00
2023-04-29T09:03:00.360Z,511.00
2023-04-29T09:04:00.243Z,508.00
2023-04-29T09:05:00.191Z,507.00
2023-04-29T09:06:00.031Z,509.00
2023-04-29T09:07:00.023Z,505.00
2023-04-29T09:07:59.990Z,509.00
2023-04-29T09:08:59.992Z,509.00
2023-04-29T09:09:59.960Z,505.00
2023-04-29T09:10:59.939Z,508.00
2023-04-29T09:11:59.918Z,510.00
2023-04-29T09:13:00.979Z,507.00
2023-04-29T09:13:59.923Z,507.00
2023-04-29T09:15:00.213Z,503.00
2023-04-29T09:15:59.862Z,509.00
2023-04-29T09:16:59.942Z,504.00
2023-04-29T09:17:59.816Z,507.00
2023-04-29T09:18:59.810Z,509.00
2023-04-29T09:19:59.926Z,508.00
2023-04-29T09:20:59.758Z,509.00
2023-04-29T09:21:59.732Z,506.00
2023-04-29T09:22:59.852Z,506.00
2023-04-29T09:23:59.707Z,506.00
2023-04-29T09:25:00.053Z,509.00
2023-04-29T09:25:59.699Z,508.00
2023-04-29T09:26:59.651Z,508.00
2023-04-29T09:27:59.636Z,512.00
2023-04-29T09:28:59.641Z,510.00
2023-04-29T09:29:59.607Z,513.00
2023-04-29T09:30:59.577Z,510.00
2023-04-29T09:31:59.720Z,514.00
2023-04-29T09:32:59.790Z,509.00
2023-04-29T09:33:59.707Z,507.00
2023-04-29T09:34:59.606Z,510.00
2023-04-29T09:35:59.497Z,511.00
2023-04-29T09:36:59.991Z,509.00
2023-04-29T09:37:59.419Z,509.00
2023-04-29T09:38:59.437Z,513.00
2023-04-29T09:39:59.373Z,514.00
2023-04-29T09:41:01.459Z,516.00
2023-04-29T09:41:59.333Z,517.00
2023-04-29T09:42:59.266Z,515.00
2023-04-29T09:43:59.227Z,518.00
2023-04-29T09:44:59.180Z,512.00
2023-04-29T09:45:59.461Z,510.00
2023-04-29T09:46:59.087Z,513.00
2023-04-29T09:47:59.248Z,514.00
2023-04-29T09:48:59.180Z,514.00
2023-04-29T09:49:58.965Z,514.00
2023-04-29T09:50:58.925Z,522.00
2023-04-29T09:51:58.880Z,522.00
2023-04-29T09:52:58.845Z,515.00
2023-04-29T09:53:58.796Z,516.00
2023-04-29T09:54:58.760Z,518.00
2023-04-29T09:55:58.956Z,520.00
2023-04-29T09:56:58.792Z,517.00
2023-04-29T09:57:58.660Z,517.00
2023-04-29T09:58:58.751Z,518.00
2023-04-29T09:59:58.582Z,515.00
2023-04-29T10:00:58.535Z,521.00
2023-04-29T10:01:58.714Z,514.00
2023-04-29T10:02:58.577Z,520.00
2023-04-29T10:03:58.550Z,522.00
2023-04-29T10:04:58.455Z,514.00
2023-04-29T10:05:58.369Z,514.00
2023-04-29T10:06:58.318Z,523.00
2023-04-29T10:07:58.464Z,516.00
2023-04-29T10:08:58.254Z,522.00
2023-04-29T10:09:58.208Z,526.00
2023-04-29T10:10:58.182Z,515.00
2023-04-29T10:11:58.134Z,521.00
2023-04-29T10:12:58.097Z,512.00
2023-04-29T10:13:58.060Z,518.00
2023-04-29T10:14:58.287Z,519.00
2023-04-29T10:15:58.015Z,519.00
2023-04-29T10:16:58.114Z,520.00
2023-04-29T10:17:57.887Z,518.00
2023-04-29T10:18:57.900Z,518.00
2023-04-29T10:19:57.808Z,522.00
2023-04-29T10:20:57.784Z,521.00
2023-04-29T10:21:58.066Z,521.00
2023-04-29T10:22:57.877Z,519.00
2023-04-29T10:23:57.653Z,518.00
2023-04-29T10:24:57.611Z,517.00
2023-04-29T10:25:57.571Z,520.00
2023-04-29T10:26:57.541Z,519.00
2023-04-29T10:27:57.492Z,528.00
2023-04-29T10:28:57.567Z,524.00
2023-04-29T10:29:57.413Z,522.00
2023-04-29T10:30:57.527Z,520.00
2023-04-29T10:31:57.427Z,521.00
2023-04-29T10:32:58.054Z,522.00
2023-04-29T10:33:57.262Z,524.00
2023-04-29T10:34:57.510Z,527.00
2023-04-29T10:35:57.195Z,521.00
2023-04-29T10:36:57.418Z,525.00
2023-04-29T10:37:57.107Z,518.00
2023-04-29T10:38:57.063Z,527.00
2023-04-29T10:39:57.033Z,523.00
2023-04-29T10:40:56.985Z,521.00
2023-04-29T10:41:56.950Z,530.00
2023-04-29T10:42:56.915Z,528.00
2023-04-29T10:43:58.051Z,525.00
2023-04-29T10:44:56.811Z,525.00
2023-04-29T10:45:56.834Z,524.00
2023-04-29T10:46:56.952Z,523.00
2023-04-29T10:47:56.699Z,524.00
2023-04-29T10:48:56.652Z,518.00
2023-04-29T10:49:56.610Z,524.00
2023-04-29T10:50:57.620Z,521.00
2023-04-29T10:51:56.726Z,525.00
2023-04-29T10:52:56.732Z,525.00
2023-04-29T10:53:56.596Z,524.00
2023-04-29T10:54:56.791Z,522.00
2023-04-29T10:55:56.597Z,522.00
2023-04-29T10:56:56.578Z,522.00
2023-04-29T10:57:56.602Z,517.00
2023-04-29T10:58:56.983Z,527.00
2023-04-29T10:59:56.695Z,523.00
2023-04-29T11:00:56.653Z,518.00
2023-04-29T11:01:56.617Z,524.00
2023-04-29T11:02:56.744Z,524.00
2023-04-29T11:03:56.718Z,519.00
2023-04-29T11:04:56.889Z,522.00
2023-04-29T11:05:56.660Z,520.00
2023-04-29T11:06:56.681Z,518.00
2023-04-29T11:07:56.669Z,515.00
2023-04-29T11:08:56.692Z,517.00
2023-04-29T11:09:56.886Z,515.00
2023-04-29T11:10:56.817Z,516.00
2023-04-29T11:11:56.714Z,520.00
2023-04-29T11:12:56.719Z,509.00
2023-04-29T11:13:56.728Z,518.00
2023-04-29T11:14:56.733Z,516.00
2023-04-29T11:15:56.770Z,517.00
2023-04-29T11:16:56.912Z,514.00
2023-04-29T11:17:56.858Z,518.00
2023-04-29T11:18:56.891Z,516.00
2023-04-29T11:19:56.988Z,508.00
2023-04-29T11:20:56.778Z,511.00
2023-04-29T11:21:56.784Z,507.00
2023-04-29T11:22:56.866Z,508.00
2023-04-29T11:23:56.805Z,510.00
2023-04-29T11:24:57.338Z,510.00
2023-04-29T11:25:56.818Z,505.00
2023-04-29T11:26:56.837Z,513.00
2023-04-29T11:27:56.858Z,508.00
2023-04-29T11:28:58.027Z,507.00
2023-04-29T11:29:56.861Z,508.00
2023-04-29T11:30:56.913Z,512.00
2023-04-29T11:31:56.958Z,510.00
2023-04-29T11:32:57.254Z,504.00
2023-04-29T11:33:56.898Z,505.00
2023-04-29T11:34:57.000Z,503.00
2023-04-29T11:35:56.907Z,507.00
2023-04-29T11:36:56.929Z,507.00
2023-04-29T11:37:56.947Z,504.00
2023-04-29T11:38:57.110Z,503.00
2023-04-29T11:39:56.977Z,504.00
2023-04-29T11:40:57.135Z,506.00
2023-04-29T11:41:57.081Z,502.00
2023-04-29T11:42:57.023Z,505.00
2023-04-29T11:43:57.025Z,508.00
2023-04-29T11:44:57.204Z,506.00
2023-04-29T11:45:57.110Z,510.00
2023-04-29T11:46:57.174Z,503.00
2023-04-29T11:47:57.230Z,505.00
2023-04-29T11:48:57.095Z,509.00
2023-04-29T11:49:57.466Z,502.00
2023-04-29T11:50:57.144Z,504.00
2023-04-29T11:51:57.134Z,503.00
2023-04-29T11:52:57.156Z,505.00
2023-04-29T11:53:57.173Z,500.00
2023-04-29T11:54:57.188Z,512.00
2023-04-29T11:55:57.215Z,509.00
2023-04-29T11:56:57.219Z,511.00
2023-04-29T11:57:58.882Z,517.00
2023-04-29T11:58:57.246Z,516.00
2023-04-29T11:59:57.254Z,514.00
2023-04-29T12:00:57.430Z,511.00
2023-04-29T12:01:57.375Z,509.00
2023-04-29T12:02:57.325Z,505.00
2023-04-29T12:03:57.466Z,512.00
2023-04-29T12:04:58.682Z,506.00
2023-04-29T12:05:57.342Z,506.00
2023-04-29T12:06:57.290Z,511.00
2023-04-29T12:07:57.446Z,502.00
2023-04-29T12:08:57.314Z,510.00
2023-04-29T12:09:57.465Z,509.00
2023-04-29T12:10:57.344Z,512.00
2023-04-29T12:11:57.366Z,503.00
2023-04-29T12:12:58.498Z,513.00
2023-04-29T12:13:57.378Z,514.00
2023-04-29T12:14:57.393Z,511.00
2023-04-29T12:15:57.441Z,509.00
2023-04-29T12:16:57.439Z,508.00
2023-04-29T12:17:57.458Z,514.00
2023-04-29T12:18:58.466Z,514.00
2023-04-29T12:19:57.471Z,511.00
2023-04-29T12:20:57.478Z,522.00
2023-04-29T12:21:57.761Z,513.00
2023-04-29T12:22:57.538Z,511.00
2023-04-29T12:23:57.537Z,518.00
2023-04-29T12:24:57.540Z,514.00
2023-04-29T12:25:57.576Z,515.00
2023-04-29T12:26:57.878Z,514.00
2023-04-29T12:27:57.598Z,513.00
2023-04-29T12:28:57.627Z,509.00